sensor_id;sensor_type;location;lat;lon;timestamp;P1;durP1;ratioP1;P2;durP2;ratioP2
69910;SDS011;63555;49.920;17.868;2023-05-07T00:02:06;19.47;;;10.07;;
69910;SDS011;63555;49.920;17.868;2023-05-07T00:07:07;19.70;;;9.98;;
69910;SDS011;63555;49.920;17.868;2023-05-07T00:12:07;20.10;;;10.33;;
69910;SDS011;63555;49.920;17.868;2023-05-07T00:17:08;14.67;;;9.03;;
69910;SDS011;63555;49.920;17.868;2023-05-07T00:22:08;17.57;;;9.70;;
69910;SDS011;63555;49.920;17.868;2023-05-07T00:27:08;18.00;;;10.07;;
69910;SDS011;63555;49.920;17.868;2023-05-07T00:32:09;18.27;;;9.80;;
69910;SDS011;63555;49.920;17.868;2023-05-07T00:37:10;18.48;;;9.57;;
69910;SDS011;63555;49.920;17.868;2023-05-07T00:42:11;16.52;;;9.52;;
69910;SDS011;63555;49.920;17.868;2023-05-07T00:47:12;16.93;;;9.73;;
69910;SDS011;63555;49.920;17.868;2023-05-07T00:52:14;22.90;;;10.35;;
69910;SDS011;63555;49.920;17.868;2023-05-07T00:57:16;19.87;;;9.33;;
69910;SDS011;63555;49.920;17.868;2023-05-07T01:02:17;22.27;;;11.15;;
69910;SDS011;63555;49.920;17.868;2023-05-07T01:07:17;21.87;;;10.33;;
69910;SDS011;63555;49.920;17.868;2023-05-07T01:12:18;19.93;;;10.03;;
69910;SDS011;63555;49.920;17.868;2023-05-07T01:17:19;23.50;;;10.53;;
69910;SDS011;63555;49.920;17.868;2023-05-07T01:22:27;19.42;;;10.20;;
69910;SDS011;63555;49.920;17.868;2023-05-07T01:27:30;18.10;;;9.85;;
69910;SDS011;63555;49.920;17.868;2023-05-07T01:32:43;17.90;;;9.50;;
69910;SDS011;63555;49.920;17.868;2023-05-07T01:37:52;19.23;;;9.43;;
69910;SDS011;63555;49.920;17.868;2023-05-07T01:42:54;18.50;;;9.17;;
69910;SDS011;63555;49.920;17.868;2023-05-07T01:47:54;16.00;;;8.87;;
69910;SDS011;63555;49.920;17.868;2023-05-07T01:52:55;15.90;;;8.40;;
69910;SDS011;63555;49.920;17.868;2023-05-07T01:57:55;17.03;;;8.87;;
69910;SDS011;63555;49.920;17.868;2023-05-07T02:02:56;15.20;;;8.23;;
69910;SDS011;63555;49.920;17.868;2023-05-07T02:07:56;16.87;;;9.33;;
69910;SDS011;63555;49.920;17.868;2023-05-07T02:12:56;15.53;;;8.83;;
69910;SDS011;63555;49.920;17.868;2023-05-07T02:18:16;17.07;;;8.73;;
69910;SDS011;63555;49.920;17.868;2023-05-07T02:23:17;17.90;;;9.52;;
69910;SDS011;63555;49.920;17.868;2023-05-07T02:28:17;15.60;;;9.17;;
69910;SDS011;63555;49.920;17.868;2023-05-07T02:33:17;16.27;;;9.23;;
69910;SDS011;63555;49.920;17.868;2023-05-07T02:38:18;18.27;;;9.33;;
69910;SDS011;63555;49.920;17.868;2023-05-07T02:43:18;16.57;;;9.13;;
69910;SDS011;63555;49.920;17.868;2023-05-07T02:48:18;17.03;;;9.97;;
69910;SDS011;63555;49.920;17.868;2023-05-07T02:53:19;17.33;;;10.37;;
69910;SDS011;63555;49.920;17.868;2023-05-07T02:58:19;19.40;;;10.90;;
69910;SDS011;63555;49.920;17.868;2023-05-07T03:03:20;18.10;;;10.13;;
69910;SDS011;63555;49.920;17.868;2023-05-07T03:08:20;19.50;;;10.37;;
69910;SDS011;63555;49.920;17.868;2023-05-07T03:13:21;18.20;;;10.17;;
69910;SDS011;63555;49.920;17.868;2023-05-07T03:18:21;21.17;;;9.27;;
69910;SDS011;63555;49.920;17.868;2023-05-07T03:23:21;16.40;;;8.80;;
69910;SDS011;63555;49.920;17.868;2023-05-07T03:28:22;18.60;;;8.23;;
69910;SDS011;63555;49.920;17.868;2023-05-07T03:33:22;16.90;;;8.13;;
69910;SDS011;63555;49.920;17.868;2023-05-07T03:38:22;18.37;;;8.80;;
69910;SDS011;63555;49.920;17.868;2023-05-07T03:43:23;23.57;;;9.63;;
69910;SDS011;63555;49.920;17.868;2023-05-07T03:48:23;19.13;;;8.93;;
69910;SDS011;63555;49.920;17.868;2023-05-07T03:53:24;18.17;;;8.57;;
69910;SDS011;63555;49.920;17.868;2023-05-07T03:58:24;20.73;;;9.50;;
69910;SDS011;63555;49.920;17.868;2023-05-07T04:03:24;20.13;;;9.93;;
69910;SDS011;63555;49.920;17.868;2023-05-07T04:08:25;22.40;;;10.10;;
69910;SDS011;63555;49.920;17.868;2023-05-07T04:13:25;23.43;;;10.10;;
69910;SDS011;63555;49.920;17.868;2023-05-07T04:18:26;18.97;;;9.10;;
69910;SDS011;63555;49.920;17.868;2023-05-07T04:23:26;20.53;;;9.43;;
69910;SDS011;63555;49.920;17.868;2023-05-07T04:28:26;20.30;;;9.40;;
69910;SDS011;63555;49.920;17.868;2023-05-07T04:33:27;17.00;;;8.00;;
69910;SDS011;63555;49.920;17.868;2023-05-07T04:38:27;17.43;;;7.93;;
69910;SDS011;63555;49.920;17.868;2023-05-07T04:43:28;17.80;;;8.07;;
69910;SDS011;63555;49.920;17.868;2023-05-07T04:48:28;16.43;;;8.33;;
69910;SDS011;63555;49.920;17.868;2023-05-07T04:53:28;13.97;;;7.13;;
69910;SDS011;63555;49.920;17.868;2023-05-07T04:58:29;12.90;;;6.83;;
69910;SDS011;63555;49.920;17.868;2023-05-07T05:03:31;10.70;;;5.80;;
69910;SDS011;63555;49.920;17.868;2023-05-07T05:08:31;12.90;;;6.53;;
69910;SDS011;63555;49.920;17.868;2023-05-07T05:13:32;13.47;;;6.60;;
69910;SDS011;63555;49.920;17.868;2023-05-07T05:18:32;14.50;;;7.17;;
69910;SDS011;63555;49.920;17.868;2023-05-07T05:23:33;14.17;;;7.37;;
69910;SDS011;63555;49.920;17.868;2023-05-07T05:28:33;13.37;;;6.70;;
69910;SDS011;63555;49.920;17.868;2023-05-07T05:33:33;14.03;;;7.33;;
69910;SDS011;63555;49.920;17.868;2023-05-07T05:38:34;12.50;;;5.70;;
69910;SDS011;63555;49.920;17.868;2023-05-07T05:43:34;9.07;;;4.43;;
69910;SDS011;63555;49.920;17.868;2023-05-07T05:48:37;8.60;;;4.03;;
69910;SDS011;63555;49.920;17.868;2023-05-07T05:53:37;6.05;;;2.85;;
69910;SDS011;63555;49.920;17.868;2023-05-07T05:58:38;7.07;;;3.40;;
69910;SDS011;63555;49.920;17.868;2023-05-07T06:03:38;8.05;;;3.13;;
69910;SDS011;63555;49.920;17.868;2023-05-07T06:08:38;5.37;;;2.90;;
69910;SDS011;63555;49.920;17.868;2023-05-07T06:13:39;6.17;;;3.30;;
69910;SDS011;63555;49.920;17.868;2023-05-07T06:18:39;7.70;;;3.70;;
69910;SDS011;63555;49.920;17.868;2023-05-07T06:23:40;8.27;;;3.57;;
69910;SDS011;63555;49.920;17.868;2023-05-07T06:28:40;6.67;;;3.40;;
69910;SDS011;63555;49.920;17.868;2023-05-07T06:33:41;8.20;;;3.47;;
69910;SDS011;63555;49.920;17.868;2023-05-07T06:38:43;10.68;;;4.22;;
69910;SDS011;63555;49.920;17.868;2023-05-07T06:43:44;8.47;;;4.43;;
69910;SDS011;63555;49.920;17.868;2023-05-07T06:48:45;10.68;;;4.07;;
69910;SDS011;63555;49.920;17.868;2023-05-07T06:53:45;9.33;;;3.90;;
69910;SDS011;63555;49.920;17.868;2023-05-07T06:58:45;8.70;;;3.93;;
69910;SDS011;63555;49.920;17.868;2023-05-07T07:03:46;8.30;;;3.47;;
69910;SDS011;63555;49.920;17.868;2023-05-07T07:08:46;9.38;;;3.83;;
69910;SDS011;63555;49.920;17.868;2023-05-07T07:13:47;10.03;;;4.67;;
69910;SDS011;63555;49.920;17.868;2023-05-07T07:18:47;8.77;;;3.97;;
69910;SDS011;63555;49.920;17.868;2023-05-07T07:23:47;9.43;;;4.63;;
69910;SDS011;63555;49.920;17.868;2023-05-07T07:28:48;10.13;;;4.20;;
69910;SDS011;63555;49.920;17.868;2023-05-07T07:33:48;8.10;;;4.00;;
69910;SDS011;63555;49.920;17.868;2023-05-07T07:38:50;7.65;;;3.92;;
69910;SDS011;63555;49.920;17.868;2023-05-07T07:43:50;9.23;;;4.40;;
69910;SDS011;63555;49.920;17.868;2023-05-07T07:48:50;10.33;;;5.23;;
69910;SDS011;63555;49.920;17.868;2023-05-07T07:53:51;11.70;;;6.50;;
69910;SDS011;63555;49.920;17.868;2023-05-07T07:58:51;12.40;;;5.60;;
69910;SDS011;63555;49.920;17.868;2023-05-07T08:03:51;10.73;;;4.77;;
69910;SDS011;63555;49.920;17.868;2023-05-07T08:08:52;12.37;;;5.80;;
69910;SDS011;63555;49.920;17.868;2023-05-07T08:13:52;9.77;;;4.93;;
69910;SDS011;63555;49.920;17.868;2023-05-07T08:18:52;11.20;;;5.53;;
69910;SDS011;63555;49.920;17.868;2023-05-07T08:23:53;18.03;;;7.10;;
69910;SDS011;63555;49.920;17.868;2023-05-07T08:28:53;12.63;;;6.80;;
69910;SDS011;63555;49.920;17.868;2023-05-07T08:33:53;14.10;;;7.50;;
69910;SDS011;63555;49.920;17.868;2023-05-07T08:38:54;14.27;;;7.07;;
69910;SDS011;63555;49.920;17.868;2023-05-07T08:43:54;14.70;;;7.95;;
69910;SDS011;63555;49.920;17.868;2023-05-07T08:48:59;17.57;;;8.47;;
69910;SDS011;63555;49.920;17.868;2023-05-07T08:54:01;25.52;;;11.85;;
69910;SDS011;63555;49.920;17.868;2023-05-07T08:59:01;20.80;;;11.07;;
69910;SDS011;63555;49.920;17.868;2023-05-07T09:04:03;20.90;;;11.02;;
69910;SDS011;63555;49.920;17.868;2023-05-07T09:09:05;19.23;;;9.70;;
69910;SDS011;63555;49.920;17.868;2023-05-07T09:14:06;16.20;;;9.10;;
69910;SDS011;63555;49.920;17.868;2023-05-07T09:19:06;17.37;;;9.53;;
69910;SDS011;63555;49.920;17.868;2023-05-07T09:24:06;8.60;;;5.57;;
69910;SDS011;63555;49.920;17.868;2023-05-07T09:29:07;8.60;;;4.50;;
69910;SDS011;63555;49.920;17.868;2023-05-07T09:34:10;11.47;;;5.43;;
69910;SDS011;63555;49.920;17.868;2023-05-07T09:39:10;7.83;;;4.40;;
69910;SDS011;63555;49.920;17.868;2023-05-07T09:44:10;6.70;;;3.90;;
69910;SDS011;63555;49.920;17.868;2023-05-07T09:49:11;7.30;;;4.37;;
69910;SDS011;63555;49.920;17.868;2023-05-07T09:54:18;5.15;;;3.20;;
69910;SDS011;63555;49.920;17.868;2023-05-07T09:59:19;4.93;;;3.10;;
69910;SDS011;63555;49.920;17.868;2023-05-07T10:04:21;4.85;;;2.95;;
69910;SDS011;63555;49.920;17.868;2023-05-07T10:09:22;9.00;;;4.30;;
69910;SDS011;63555;49.920;17.868;2023-05-07T10:14:23;6.10;;;3.60;;
69910;SDS011;63555;49.920;17.868;2023-05-07T10:19:23;7.37;;;4.00;;
69910;SDS011;63555;49.920;17.868;2023-05-07T10:24:26;5.57;;;3.97;;
69910;SDS011;63555;49.920;17.868;2023-05-07T10:34:45;5.53;;;2.47;;
69910;SDS011;63555;49.920;17.868;2023-05-07T10:39:48;4.63;;;2.53;;
69910;SDS011;63555;49.920;17.868;2023-05-07T10:44:49;4.60;;;2.85;;
69910;SDS011;63555;49.920;17.868;2023-05-07T10:55:23;6.90;;;2.37;;
69910;SDS011;63555;49.920;17.868;2023-05-07T11:05:23;4.32;;;2.40;;
69910;SDS011;63555;49.920;17.868;2023-05-07T11:10:47;3.83;;;2.23;;
69910;SDS011;63555;49.920;17.868;2023-05-07T11:15:58;4.40;;;2.50;;
69910;SDS011;63555;49.920;17.868;2023-05-07T11:20:58;4.20;;;2.70;;
69910;SDS011;63555;49.920;17.868;2023-05-07T11:26:09;5.15;;;2.80;;
69910;SDS011;63555;49.920;17.868;2023-05-07T11:31:11;5.33;;;3.00;;
69910;SDS011;63555;49.920;17.868;2023-05-07T11:36:11;4.50;;;2.63;;
69910;SDS011;63555;49.920;17.868;2023-05-07T11:41:12;4.18;;;2.15;;
69910;SDS011;63555;49.920;17.868;2023-05-07T11:46:13;5.40;;;2.80;;
69910;SDS011;63555;49.920;17.868;2023-05-07T11:51:14;4.07;;;2.45;;
69910;SDS011;63555;49.920;17.868;2023-05-07T11:56:19;3.97;;;2.65;;
69910;SDS011;63555;49.920;17.868;2023-05-07T12:01:20;5.25;;;2.80;;
69910;SDS011;63555;49.920;17.868;2023-05-07T12:06:20;5.37;;;2.47;;
69910;SDS011;63555;49.920;17.868;2023-05-07T12:11:24;4.40;;;3.00;;
69910;SDS011;63555;49.920;17.868;2023-05-07T12:16:25;6.07;;;3.03;;
69910;SDS011;63555;49.920;17.868;2023-05-07T12:21:27;5.20;;;3.70;;
69910;SDS011;63555;49.920;17.868;2023-05-07T12:26:28;6.30;;;4.50;;
69910;SDS011;63555;49.920;17.868;2023-05-07T12:31:28;6.50;;;3.60;;
69910;SDS011;63555;49.920;17.868;2023-05-07T12:36:36;9.23;;;3.80;;
69910;SDS011;63555;49.920;17.868;2023-05-07T12:47:01;6.47;;;3.85;;
69910;SDS011;63555;49.920;17.868;2023-05-07T12:52:02;7.05;;;4.15;;
69910;SDS011;63555;49.920;17.868;2023-05-07T12:57:06;6.23;;;4.03;;
69910;SDS011;63555;49.920;17.868;2023-05-07T13:02:08;6.85;;;4.22;;
69910;SDS011;63555;49.920;17.868;2023-05-07T13:07:09;7.37;;;4.57;;
69910;SDS011;63555;49.920;17.868;2023-05-07T13:12:12;7.00;;;3.90;;
69910;SDS011;63555;49.920;17.868;2023-05-07T13:17:12;6.85;;;3.63;;
69910;SDS011;63555;49.920;17.868;2023-05-07T13:22:13;4.35;;;2.75;;
69910;SDS011;63555;49.920;17.868;2023-05-07T13:27:13;6.80;;;3.73;;
69910;SDS011;63555;49.920;17.868;2023-05-07T13:32:13;5.47;;;3.70;;
69910;SDS011;63555;49.920;17.868;2023-05-07T13:37:14;6.07;;;3.90;;
69910;SDS011;63555;49.920;17.868;2023-05-07T13:42:14;5.53;;;3.60;;
69910;SDS011;63555;49.920;17.868;2023-05-07T13:47:14;5.90;;;3.67;;
69910;SDS011;63555;49.920;17.868;2023-05-07T13:52:15;6.90;;;3.90;;
69910;SDS011;63555;49.920;17.868;2023-05-07T13:57:16;6.68;;;4.13;;
69910;SDS011;63555;49.920;17.868;2023-05-07T14:02:16;7.30;;;3.77;;
69910;SDS011;63555;49.920;17.868;2023-05-07T14:07:17;6.63;;;3.73;;
69910;SDS011;63555;49.920;17.868;2023-05-07T14:12:17;5.43;;;3.37;;
69910;SDS011;63555;49.920;17.868;2023-05-07T14:17:17;10.53;;;4.40;;
69910;SDS011;63555;49.920;17.868;2023-05-07T14:22:19;9.02;;;4.65;;
69910;SDS011;63555;49.920;17.868;2023-05-07T14:27:20;6.93;;;4.38;;
69910;SDS011;63555;49.920;17.868;2023-05-07T14:32:21;8.73;;;4.80;;
69910;SDS011;63555;49.920;17.868;2023-05-07T14:37:21;7.88;;;4.72;;
69910;SDS011;63555;49.920;17.868;2023-05-07T14:42:22;7.30;;;4.70;;
69910;SDS011;63555;49.920;17.868;2023-05-07T14:47:22;8.03;;;4.50;;
69910;SDS011;63555;49.920;17.868;2023-05-07T14:52:22;6.93;;;4.43;;
69910;SDS011;63555;49.920;17.868;2023-05-07T14:57:23;6.10;;;4.20;;
69910;SDS011;63555;49.920;17.868;2023-05-07T15:02:23;5.87;;;3.30;;
69910;SDS011;63555;49.920;17.868;2023-05-07T15:07:24;7.60;;;4.60;;
69910;SDS011;63555;49.920;17.868;2023-05-07T15:12:24;7.53;;;3.93;;
69910;SDS011;63555;49.920;17.868;2023-05-07T15:17:24;6.13;;;4.00;;
69910;SDS011;63555;49.920;17.868;2023-05-07T15:22:25;7.50;;;3.93;;
69910;SDS011;63555;49.920;17.868;2023-05-07T15:27:25;6.80;;;4.30;;
69910;SDS011;63555;49.920;17.868;2023-05-07T15:32:25;6.60;;;3.90;;
69910;SDS011;63555;49.920;17.868;2023-05-07T15:37:26;7.77;;;4.40;;
69910;SDS011;63555;49.920;17.868;2023-05-07T15:42:27;9.30;;;4.80;;
69910;SDS011;63555;49.920;17.868;2023-05-07T15:47:27;6.67;;;3.90;;
69910;SDS011;63555;49.920;17.868;2023-05-07T15:52:28;7.77;;;4.30;;
69910;SDS011;63555;49.920;17.868;2023-05-07T15:57:28;7.43;;;4.23;;
69910;SDS011;63555;49.920;17.868;2023-05-07T16:02:29;6.75;;;3.83;;
69910;SDS011;63555;49.920;17.868;2023-05-07T16:07:29;6.28;;;3.72;;
69910;SDS011;63555;49.920;17.868;2023-05-07T16:12:30;7.37;;;4.10;;
69910;SDS011;63555;49.920;17.868;2023-05-07T16:17:30;7.77;;;4.17;;
69910;SDS011;63555;49.920;17.868;2023-05-07T16:22:31;8.33;;;3.93;;
69910;SDS011;63555;49.920;17.868;2023-05-07T16:27:32;6.70;;;3.70;;
69910;SDS011;63555;49.920;17.868;2023-05-07T16:32:32;6.93;;;3.23;;
69910;SDS011;63555;49.920;17.868;2023-05-07T16:37:32;5.97;;;3.60;;
69910;SDS011;63555;49.920;17.868;2023-05-07T16:42:33;6.88;;;3.22;;
69910;SDS011;63555;49.920;17.868;2023-05-07T16:47:35;5.83;;;3.20;;
69910;SDS011;63555;49.920;17.868;2023-05-07T16:52:36;6.25;;;3.50;;
69910;SDS011;63555;49.920;17.868;2023-05-07T16:57:37;6.40;;;3.60;;
69910;SDS011;63555;49.920;17.868;2023-05-07T17:02:37;8.67;;;3.67;;
69910;SDS011;63555;49.920;17.868;2023-05-07T17:07:38;6.13;;;3.47;;
69910;SDS011;63555;49.920;17.868;2023-05-07T17:12:38;7.97;;;3.67;;
69910;SDS011;63555;49.920;17.868;2023-05-07T17:17:39;6.03;;;3.40;;
69910;SDS011;63555;49.920;17.868;2023-05-07T17:22:40;7.80;;;3.55;;
69910;SDS011;63555;49.920;17.868;2023-05-07T17:27:41;7.47;;;4.27;;
69910;SDS011;63555;49.920;17.868;2023-05-07T17:32:41;7.13;;;3.60;;
69910;SDS011;63555;49.920;17.868;2023-05-07T17:37:41;6.33;;;4.00;;
69910;SDS011;63555;49.920;17.868;2023-05-07T17:42:45;5.93;;;3.47;;
69910;SDS011;63555;49.920;17.868;2023-05-07T17:47:46;6.90;;;3.73;;
69910;SDS011;63555;49.920;17.868;2023-05-07T17:52:46;6.97;;;3.97;;
69910;SDS011;63555;49.920;17.868;2023-05-07T17:57:48;7.60;;;3.80;;
69910;SDS011;63555;49.920;17.868;2023-05-07T18:02:50;7.00;;;4.00;;
69910;SDS011;63555;49.920;17.868;2023-05-07T18:07:51;8.43;;;4.28;;
69910;SDS011;63555;49.920;17.868;2023-05-07T18:12:51;8.57;;;4.57;;
69910;SDS011;63555;49.920;17.868;2023-05-07T18:17:51;10.63;;;5.07;;
69910;SDS011;63555;49.920;17.868;2023-05-07T18:22:52;11.57;;;5.27;;
69910;SDS011;63555;49.920;17.868;2023-05-07T18:27:52;10.33;;;5.70;;
69910;SDS011;63555;49.920;17.868;2023-05-07T18:32:52;9.70;;;5.40;;
69910;SDS011;63555;49.920;17.868;2023-05-07T18:37:53;10.17;;;5.73;;
69910;SDS011;63555;49.920;17.868;2023-05-07T18:42:53;9.60;;;5.23;;
69910;SDS011;63555;49.920;17.868;2023-05-07T18:47:54;12.52;;;6.85;;
69910;SDS011;63555;49.920;17.868;2023-05-07T18:52:55;11.40;;;6.40;;
69910;SDS011;63555;49.920;17.868;2023-05-07T18:57:55;10.10;;;5.87;;
69910;SDS011;63555;49.920;17.868;2023-05-07T19:02:55;11.03;;;6.23;;
69910;SDS011;63555;49.920;17.868;2023-05-07T19:07:56;12.60;;;6.57;;
69910;SDS011;63555;49.920;17.868;2023-05-07T19:12:56;10.90;;;6.10;;
69910;SDS011;63555;49.920;17.868;2023-05-07T19:17:56;11.40;;;6.60;;
69910;SDS011;63555;49.920;17.868;2023-05-07T19:22:57;16.47;;;6.90;;
69910;SDS011;63555;49.920;17.868;2023-05-07T19:27:57;11.03;;;5.93;;
69910;SDS011;63555;49.920;17.868;2023-05-07T19:32:58;13.33;;;6.73;;
69910;SDS011;63555;49.920;17.868;2023-05-07T19:38:00;12.25;;;6.15;;
69910;SDS011;63555;49.920;17.868;2023-05-07T19:43:01;11.90;;;5.50;;
69910;SDS011;63555;49.920;17.868;2023-05-07T19:48:01;12.10;;;6.33;;
69910;SDS011;63555;49.920;17.868;2023-05-07T19:53:02;11.20;;;5.70;;
69910;SDS011;63555;49.920;17.868;2023-05-07T19:58:02;13.23;;;7.15;;
69910;SDS011;63555;49.920;17.868;2023-05-07T20:03:03;12.03;;;6.37;;
69910;SDS011;63555;49.920;17.868;2023-05-07T20:08:03;12.53;;;6.63;;
69910;SDS011;63555;49.920;17.868;2023-05-07T20:13:05;12.98;;;6.47;;
69910;SDS011;63555;49.920;17.868;2023-05-07T20:18:05;10.80;;;5.90;;
69910;SDS011;63555;49.920;17.868;2023-05-07T20:23:05;14.15;;;7.55;;
69910;SDS011;63555;49.920;17.868;2023-05-07T20:28:06;11.95;;;6.32;;
69910;SDS011;63555;49.920;17.868;2023-05-07T20:33:07;14.63;;;7.00;;
69910;SDS011;63555;49.920;17.868;2023-05-07T20:38:07;11.90;;;6.77;;
69910;SDS011;63555;49.920;17.868;2023-05-07T20:43:07;13.43;;;6.57;;
69910;SDS011;63555;49.920;17.868;2023-05-07T20:48:08;13.53;;;6.13;;
69910;SDS011;63555;49.920;17.868;2023-05-07T20:53:08;12.90;;;6.70;;
69910;SDS011;63555;49.920;17.868;2023-05-07T20:58:08;11.63;;;6.30;;
69910;SDS011;63555;49.920;17.868;2023-05-07T21:03:09;11.60;;;6.43;;
69910;SDS011;63555;49.920;17.868;2023-05-07T21:08:09;11.87;;;6.17;;
69910;SDS011;63555;49.920;17.868;2023-05-07T21:13:10;12.80;;;5.90;;
69910;SDS011;63555;49.920;17.868;2023-05-07T21:18:10;10.07;;;4.70;;
69910;SDS011;63555;49.920;17.868;2023-05-07T21:23:11;12.53;;;5.87;;
69910;SDS011;63555;49.920;17.868;2023-05-07T21:28:11;12.13;;;5.97;;
69910;SDS011;63555;49.920;17.868;2023-05-07T21:33:12;15.50;;;5.67;;
69910;SDS011;63555;49.920;17.868;2023-05-07T21:38:12;12.63;;;6.07;;
69910;SDS011;63555;49.920;17.868;2023-05-07T21:43:12;11.18;;;5.18;;
69910;SDS011;63555;49.920;17.868;2023-05-07T21:48:13;9.07;;;5.10;;
69910;SDS011;63555;49.920;17.868;2023-05-07T21:53:21;12.32;;;5.53;;
69910;SDS011;63555;49.920;17.868;2023-05-07T21:58:21;11.77;;;5.17;;
69910;SDS011;63555;49.920;17.868;2023-05-07T22:03:21;10.07;;;4.80;;
69910;SDS011;63555;49.920;17.868;2023-05-07T22:08:22;12.23;;;5.20;;
69910;SDS011;63555;49.920;17.868;2023-05-07T22:13:22;11.13;;;4.97;;
69910;SDS011;63555;49.920;17.868;2023-05-07T22:18:23;10.23;;;4.82;;
69910;SDS011;63555;49.920;17.868;2023-05-07T22:23:23;10.17;;;5.47;;
69910;SDS011;63555;49.920;17.868;2023-05-07T22:28:24;11.43;;;5.03;;
69910;SDS011;63555;49.920;17.868;2023-05-07T22:33:24;11.07;;;5.30;;
69910;SDS011;63555;49.920;17.868;2023-05-07T22:38:24;10.13;;;5.18;;
69910;SDS011;63555;49.920;17.868;2023-05-07T22:43:25;9.17;;;4.77;;
69910;SDS011;63555;49.920;17.868;2023-05-07T22:48:26;10.47;;;5.37;;
69910;SDS011;63555;49.920;17.868;2023-05-07T22:53:31;9.13;;;5.33;;
69910;SDS011;63555;49.920;17.868;2023-05-07T22:58:31;17.87;;;8.20;;
69910;SDS011;63555;49.920;17.868;2023-05-07T23:03:32;12.97;;;6.80;;
69910;SDS011;63555;49.920;17.868;2023-05-07T23:08:32;11.70;;;5.40;;
69910;SDS011;63555;49.920;17.868;2023-05-07T23:13:33;9.10;;;4.77;;
69910;SDS011;63555;49.920;17.868;2023-05-07T23:18:33;10.27;;;5.57;;
69910;SDS011;63555;49.920;17.868;2023-05-07T23:23:34;10.80;;;5.47;;
69910;SDS011;63555;49.920;17.868;2023-05-07T23:28:34;12.33;;;6.00;;
69910;SDS011;63555;49.920;17.868;2023-05-07T23:33:35;9.60;;;5.10;;
69910;SDS011;63555;49.920;17.868;2023-05-07T23:38:36;10.50;;;5.90;;
69910;SDS011;63555;49.920;17.868;2023-05-07T23:43:36;9.73;;;5.43;;
69910;SDS011;63555;49.920;17.868;2023-05-07T23:48:37;12.97;;;5.97;;
69910;SDS011;63555;49.920;17.868;2023-05-07T23:53:37;10.70;;;5.53;;
69910;SDS011;63555;49.920;17.868;2023-05-07T23:58:37;10.43;;;5.93;;
